createdAt,value
2023-05-21T00:02:05.729Z,94420.34
2023-05-21T00:04:33.896Z,94421.97
2023-05-21T00:07:00.975Z,94414.34
2023-05-21T00:09:28.202Z,94415.94
2023-05-21T00:11:55.000Z,94411.25
2023-05-21T00:14:21.768Z,94409.69
2023-05-21T00:16:48.599Z,94405.41
2023-05-21T00:19:15.545Z,94406.53
2023-05-21T00:21:45.948Z,94401.16
2023-05-21T00:24:12.953Z,94394.88
2023-05-21T00:26:39.776Z,94394.59
2023-05-21T00:29:06.664Z,94393.47
2023-05-21T00:31:33.815Z,94395.22
2023-05-21T00:34:00.894Z,94397.88
2023-05-21T00:36:28.293Z,94406.91
2023-05-21T00:38:55.071Z,94398.75
2023-05-21T00:41:23.181Z,94400.72
2023-05-21T00:43:50.290Z,94397.72
2023-05-21T00:46:22.010Z,94403.25
2023-05-21T00:48:50.780Z,94400.88
2023-05-21T00:51:18.772Z,94391.91
2023-05-21T00:53:47.076Z,94385.78
2023-05-21T00:56:13.927Z,94392.22
2023-05-21T00:58:41.548Z,94393.47
2023-05-21T01:01:13.725Z,94390.94
2023-05-21T01:03:41.153Z,94381.84
2023-05-21T01:06:09.863Z,94384.00
2023-05-21T01:08:38.274Z,94373.84
2023-05-21T01:11:06.703Z,94378.94
2023-05-21T01:13:37.060Z,94376.47
2023-05-21T01:16:06.754Z,94378.91
2023-05-21T01:18:38.409Z,94378.38
2023-05-21T01:21:07.493Z,94377.44
2023-05-21T01:23:34.778Z,94378.47
2023-05-21T01:26:01.582Z,94377.50
2023-05-21T01:28:29.877Z,94367.16
2023-05-21T01:31:02.639Z,94372.66
2023-05-21T01:33:45.568Z,94373.22
2023-05-21T01:36:26.894Z,94374.63
2023-05-21T01:39:09.405Z,94368.31
2023-05-21T01:41:41.010Z,94368.63
2023-05-21T01:44:10.068Z,94362.66
2023-05-21T01:46:38.461Z,94363.44
2023-05-21T01:49:06.684Z,94369.75
2023-05-21T01:51:35.497Z,94364.53
2023-05-21T01:54:03.237Z,94352.56
2023-05-21T01:56:30.097Z,94362.56
2023-05-21T01:58:59.516Z,94365.47
2023-05-21T02:01:30.189Z,94363.34
2023-05-21T02:03:58.075Z,94359.78
2023-05-21T02:06:25.483Z,94361.03
2023-05-21T02:08:52.405Z,94367.38
2023-05-21T02:11:19.504Z,94359.50
2023-05-21T02:13:46.384Z,94362.81
2023-05-21T02:16:14.899Z,94355.69
2023-05-21T02:18:45.351Z,94359.16
2023-05-21T02:21:12.283Z,94349.44
2023-05-21T02:23:39.069Z,94363.13
2023-05-21T02:26:05.964Z,94355.66
2023-05-21T02:28:33.121Z,94347.34
2023-05-21T02:31:00.181Z,94365.91
2023-05-21T02:33:27.078Z,94361.56
2023-05-21T02:35:54.083Z,94361.50
2023-05-21T02:38:23.124Z,94359.03
2023-05-21T02:40:53.561Z,94363.59
2023-05-21T02:43:20.597Z,94357.91
2023-05-21T02:45:48.183Z,94357.75
2023-05-21T02:48:15.247Z,94347.88
2023-05-21T02:50:42.450Z,94350.91
2023-05-21T02:53:09.405Z,94348.03
2023-05-21T02:55:36.728Z,94360.41
2023-05-21T02:58:03.676Z,94358.00
2023-05-21T03:00:30.894Z,94354.56
2023-05-21T03:02:57.871Z,94354.06
2023-05-21T03:05:24.717Z,94357.50
2023-05-21T03:07:51.585Z,94350.97
2023-05-21T03:10:18.541Z,94348.72
2023-05-21T03:12:45.676Z,94363.72
2023-05-21T03:15:14.951Z,94360.69
2023-05-21T03:17:42.414Z,94351.91
2023-05-21T03:20:16.055Z,94345.03
2023-05-21T03:22:44.575Z,94358.59
2023-05-21T03:25:12.873Z,94352.22
2023-05-21T03:27:40.077Z,94344.94
2023-05-21T03:30:16.821Z,94355.16
2023-05-21T03:33:00.236Z,94353.72
2023-05-21T03:35:27.522Z,94353.34
2023-05-21T03:37:54.499Z,94356.16
2023-05-21T03:40:21.943Z,94345.16
2023-05-21T03:42:49.152Z,94354.97
2023-05-21T03:45:16.056Z,94342.75
2023-05-21T03:48:21.073Z,94354.38
2023-05-21T03:50:47.866Z,94354.97
2023-05-21T03:53:15.639Z,94359.44
2023-05-21T03:55:42.598Z,94355.00
2023-05-21T03:58:10.833Z,94355.34
2023-05-21T04:00:38.116Z,94356.28
2023-05-21T04:03:07.211Z,94358.13
2023-05-21T04:05:34.543Z,94353.69
2023-05-21T04:08:01.771Z,94353.75
2023-05-21T04:10:28.868Z,94354.00
2023-05-21T04:12:55.677Z,94347.94
2023-05-21T04:15:22.460Z,94341.88
2023-05-21T04:17:50.387Z,94353.53
2023-05-21T04:20:17.905Z,94350.69
2023-05-21T04:22:44.932Z,94348.16
2023-05-21T04:25:12.190Z,94345.78
2023-05-21T04:27:39.387Z,94348.91
2023-05-21T04:30:08.519Z,94354.06
2023-05-21T04:32:36.773Z,94354.47
2023-05-21T04:35:04.336Z,94361.91
2023-05-21T04:37:35.357Z,94363.44
2023-05-21T04:40:04.324Z,94360.59
2023-05-21T04:42:33.019Z,94366.25
2023-05-21T04:45:00.056Z,94356.16
2023-05-21T04:47:35.626Z,94372.41
2023-05-21T04:50:04.525Z,94369.53
2023-05-21T04:52:31.752Z,94368.44
2023-05-21T04:54:59.095Z,94359.06
2023-05-21T04:57:26.071Z,94358.78
2023-05-21T04:59:52.831Z,94356.84
2023-05-21T05:02:19.723Z,94359.97
2023-05-21T05:04:46.582Z,94359.16
2023-05-21T05:07:13.770Z,94348.41
2023-05-21T05:09:40.722Z,94364.47
2023-05-21T05:12:08.406Z,94356.44
2023-05-21T05:14:35.439Z,94365.66
2023-05-21T05:17:02.258Z,94349.22
2023-05-21T05:19:29.490Z,94361.78
2023-05-21T05:21:56.920Z,94357.88
2023-05-21T05:24:23.932Z,94348.78
2023-05-21T05:26:51.540Z,94358.22
2023-05-21T05:29:18.443Z,94346.03
2023-05-21T05:31:45.344Z,94358.34
2023-05-21T05:34:12.735Z,94366.81
2023-05-21T05:36:39.565Z,94358.00
2023-05-21T05:39:06.385Z,94360.22
2023-05-21T05:41:33.240Z,94357.75
2023-05-21T05:43:59.976Z,94358.66
2023-05-21T05:48:57.195Z,94359.41
2023-05-21T05:51:24.193Z,94367.47
2023-05-21T05:53:51.389Z,94373.16
2023-05-21T05:56:18.216Z,94383.38
2023-05-21T05:58:45.005Z,94383.41
2023-05-21T06:01:14.178Z,94351.78
2023-05-21T06:03:41.410Z,94362.97
2023-05-21T06:06:14.520Z,94340.03
2023-05-21T06:08:41.479Z,94356.28
2023-05-21T06:11:08.499Z,94352.75
2023-05-21T06:13:35.744Z,94360.69
2023-05-21T06:16:04.273Z,94349.19
2023-05-21T06:18:31.115Z,94366.94
2023-05-21T06:20:57.869Z,94363.13
2023-05-21T06:23:25.091Z,94359.25
2023-05-21T06:25:52.278Z,94358.06
2023-05-21T06:28:20.181Z,94374.78
2023-05-21T06:30:48.505Z,94375.88
2023-05-21T06:33:16.278Z,94364.63
2023-05-21T06:35:43.966Z,94373.06
2023-05-21T06:38:11.525Z,94373.63
2023-05-21T06:40:38.432Z,94362.78
2023-05-21T06:43:05.819Z,94371.16
2023-05-21T06:45:51.605Z,94379.13
2023-05-21T06:48:27.874Z,94363.31
2023-05-21T06:50:54.901Z,94374.31
2023-05-21T06:53:22.028Z,94369.84
2023-05-21T06:55:53.865Z,94373.84
2023-05-21T06:58:39.140Z,94357.75
2023-05-21T07:01:06.104Z,94386.00
2023-05-21T07:03:33.011Z,94388.25
2023-05-21T07:05:59.894Z,94371.84
2023-05-21T07:08:27.313Z,94392.38
2023-05-21T07:10:56.391Z,94384.41
2023-05-21T07:13:23.298Z,94378.81
2023-05-21T07:15:50.219Z,94396.16
2023-05-21T07:18:18.964Z,94399.97
2023-05-21T07:20:45.761Z,94387.34
2023-05-21T07:23:15.162Z,94383.69
2023-05-21T07:25:41.926Z,94384.50
2023-05-21T07:28:08.814Z,94382.06
2023-05-21T07:30:36.401Z,94397.72
2023-05-21T07:33:06.750Z,94381.34
2023-05-21T07:35:33.676Z,94395.69
2023-05-21T07:38:00.683Z,94383.44
2023-05-21T07:40:27.591Z,94394.97
2023-05-21T07:42:54.843Z,94373.44
2023-05-21T07:45:23.475Z,94386.47
2023-05-21T07:47:50.970Z,94385.22
2023-05-21T07:50:17.858Z,94395.22
2023-05-21T07:52:44.656Z,94396.38
2023-05-21T07:55:11.561Z,94374.38
2023-05-21T07:57:40.433Z,94377.28
2023-05-21T08:00:14.286Z,94360.97
2023-05-21T08:02:52.441Z,94364.78
2023-05-21T08:05:21.260Z,94376.94
2023-05-21T08:07:48.484Z,94378.59
2023-05-21T08:10:17.158Z,94381.75
2023-05-21T08:12:46.480Z,94378.16
2023-05-21T08:15:13.331Z,94373.41
2023-05-21T08:17:44.244Z,94377.69
2023-05-21T08:20:11.849Z,94387.66
2023-05-21T08:22:38.900Z,94401.97
2023-05-21T08:25:08.579Z,94420.97
2023-05-21T08:27:35.371Z,94431.56
2023-05-21T08:30:03.235Z,94421.44
2023-05-21T08:32:30.101Z,94394.50
2023-05-21T08:34:57.802Z,94398.47
2023-05-21T08:38:03.216Z,94418.28
2023-05-21T08:40:41.537Z,94402.13
2023-05-21T08:43:13.797Z,94371.47
2023-05-21T08:45:54.691Z,94379.25
2023-05-21T08:48:24.722Z,94375.25
2023-05-21T08:50:53.316Z,94395.25
2023-05-21T08:53:29.094Z,94393.56
2023-05-21T08:55:57.571Z,94400.47
2023-05-21T08:58:33.784Z,94399.38
2023-05-21T09:01:00.901Z,94375.66
2023-05-21T09:03:29.423Z,94408.31
2023-05-21T09:05:57.457Z,94403.16
2023-05-21T09:08:31.447Z,94385.72
2023-05-21T09:11:03.363Z,94396.41
2023-05-21T09:13:45.077Z,94422.78
2023-05-21T09:16:22.956Z,94390.28
2023-05-21T09:18:50.070Z,94385.72
2023-05-21T09:21:24.549Z,94388.88
2023-05-21T09:23:57.089Z,94384.22
2023-05-21T09:26:25.101Z,94407.09
2023-05-21T09:29:00.225Z,94433.97
2023-05-21T09:31:27.573Z,94419.09
2023-05-21T09:33:56.098Z,94413.97
2023-05-21T09:36:25.100Z,94417.69
2023-05-21T09:38:52.405Z,94407.88
2023-05-21T09:41:22.261Z,94425.41
2023-05-21T09:43:49.602Z,94427.59
2023-05-21T09:46:21.139Z,94424.31
2023-05-21T09:48:48.064Z,94404.03
2023-05-21T09:51:19.652Z,94438.09
2023-05-21T09:53:59.593Z,94437.97
2023-05-21T09:56:30.794Z,94430.00
2023-05-21T09:59:04.350Z,94434.75
2023-05-21T10:01:33.985Z,94429.16
2023-05-21T10:04:02.785Z,94432.66
2023-05-21T10:06:32.240Z,94421.28
2023-05-21T10:09:06.214Z,94435.16
2023-05-21T10:11:34.737Z,94447.97
2023-05-21T10:14:07.588Z,94436.47
2023-05-21T10:16:36.452Z,94447.53
2023-05-21T10:19:04.848Z,94467.91
2023-05-21T10:21:33.515Z,94451.25
2023-05-21T10:24:02.543Z,94456.53
2023-05-21T10:26:30.963Z,94407.47
2023-05-21T10:29:01.113Z,94402.69
2023-05-21T10:31:28.608Z,94422.13
2023-05-21T10:33:56.192Z,94414.22
2023-05-21T10:36:24.515Z,94418.09
2023-05-21T10:38:51.997Z,94419.84
2023-05-21T10:41:21.930Z,94417.41
2023-05-21T10:44:17.703Z,94422.50
2023-05-21T10:47:16.893Z,94423.53
2023-05-21T10:49:59.106Z,94449.78
2023-05-21T10:52:58.298Z,94435.81
2023-05-21T10:55:33.938Z,94428.19
2023-05-21T10:58:16.501Z,94416.50
2023-05-21T11:00:43.997Z,94425.63
2023-05-21T11:03:14.012Z,94441.59
2023-05-21T11:06:02.663Z,94475.94
2023-05-21T11:08:36.332Z,94478.97
2023-05-21T11:11:04.234Z,94462.25
2023-05-21T11:13:50.630Z,94462.59
2023-05-21T11:16:18.185Z,94484.25
2023-05-21T11:18:44.907Z,94453.16
2023-05-21T11:21:21.104Z,94450.78
2023-05-21T11:23:51.445Z,94491.22
2023-05-21T11:26:24.443Z,94487.63
2023-05-21T11:29:11.781Z,94496.44
2023-05-21T11:31:39.174Z,94472.47
2023-05-21T11:34:13.735Z,94486.47
2023-05-21T11:36:44.918Z,94464.66
2023-05-21T11:39:21.890Z,94473.47
2023-05-21T11:42:01.013Z,94486.47
2023-05-21T11:44:43.153Z,94463.28
2023-05-21T11:47:12.404Z,94480.09
2023-05-21T11:49:39.630Z,94474.84
2023-05-21T11:52:08.440Z,94511.97
2023-05-21T11:54:46.539Z,94472.88
2023-05-21T11:57:17.790Z,94479.19
2023-05-21T11:59:48.987Z,94471.75
2023-05-21T12:02:20.567Z,94466.63
2023-05-21T12:04:49.042Z,94464.59
2023-05-21T12:07:17.667Z,94457.47
2023-05-21T12:09:45.520Z,94453.41
2023-05-21T12:12:14.764Z,94459.53
2023-05-21T12:14:46.375Z,94450.34
2023-05-21T12:17:16.612Z,94438.97
2023-05-21T12:19:43.857Z,94430.53
2023-05-21T12:22:10.904Z,94424.84
2023-05-21T12:24:38.997Z,94438.59
2023-05-21T12:27:10.389Z,94409.66
2023-05-21T12:29:38.753Z,94407.69
2023-05-21T12:32:07.533Z,94417.13
2023-05-21T12:34:54.937Z,94428.19
2023-05-21T12:37:26.435Z,94403.56
2023-05-21T12:39:55.791Z,94399.41
2023-05-21T12:42:30.947Z,94394.22
2023-05-21T12:44:58.516Z,94394.19
2023-05-21T12:47:26.957Z,94398.94
2023-05-21T12:49:58.041Z,94394.53
2023-05-21T12:52:25.857Z,94389.28
2023-05-21T12:54:54.292Z,94404.53
2023-05-21T12:57:23.923Z,94413.06
2023-05-21T12:59:53.389Z,94426.41
2023-05-21T13:02:28.419Z,94381.78
2023-05-21T13:05:06.942Z,94385.41
2023-05-21T13:07:36.191Z,94379.00
2023-05-21T13:10:04.405Z,94373.25
2023-05-21T13:12:32.632Z,94363.66
2023-05-21T13:15:02.082Z,94361.22
2023-05-21T13:17:29.288Z,94380.13
2023-05-21T13:20:16.772Z,94366.56
2023-05-21T13:22:47.417Z,94331.44
2023-05-21T13:25:18.348Z,94366.72
2023-05-21T13:27:45.646Z,94332.53
2023-05-21T13:30:12.857Z,94321.34
2023-05-21T13:32:41.135Z,94336.91
2023-05-21T13:35:09.401Z,94339.88
2023-05-21T13:37:36.590Z,94331.13
2023-05-21T13:40:11.471Z,94332.88
2023-05-21T13:42:38.936Z,94318.47
2023-05-21T13:45:10.885Z,94329.44
2023-05-21T13:47:40.172Z,94336.81
2023-05-21T13:50:08.562Z,94331.41
2023-05-21T13:52:35.864Z,94345.88
2023-05-21T13:55:02.940Z,94357.13
2023-05-21T13:57:31.147Z,94349.69
2023-05-21T13:59:59.158Z,94356.22
2023-05-21T14:02:26.399Z,94337.81
2023-05-21T14:04:53.957Z,94343.94
2023-05-21T14:07:22.190Z,94340.34
2023-05-21T14:09:49.366Z,94340.88
2023-05-21T14:12:17.011Z,94329.81
2023-05-21T14:14:44.131Z,94348.94
2023-05-21T14:17:11.246Z,94333.34
2023-05-21T14:19:38.061Z,94322.09
2023-05-21T14:22:05.008Z,94346.66
2023-05-21T14:24:31.775Z,94361.03
2023-05-21T14:26:58.587Z,94344.69
2023-05-21T14:29:25.324Z,94328.25
2023-05-21T14:31:52.134Z,94325.16
2023-05-21T14:34:19.039Z,94336.56
2023-05-21T14:36:46.020Z,94355.38
2023-05-21T14:39:13.018Z,94313.41
2023-05-21T14:41:40.146Z,94317.41
2023-05-21T14:44:06.960Z,94303.84
2023-05-21T14:46:33.974Z,94312.16
2023-05-21T14:49:00.999Z,94322.41
2023-05-21T14:51:27.991Z,94324.88
2023-05-21T14:53:57.182Z,94316.00
2023-05-21T14:56:27.341Z,94318.66
2023-05-21T14:58:54.552Z,94328.28
2023-05-21T15:01:21.917Z,94331.13
2023-05-21T15:03:49.245Z,94313.28
2023-05-21T15:06:16.212Z,94323.69
2023-05-21T15:08:42.934Z,94313.84
2023-05-21T15:11:10.433Z,94322.94
2023-05-21T15:13:37.931Z,94312.28
2023-05-21T15:16:04.911Z,94318.28
2023-05-21T15:18:31.701Z,94324.56
2023-05-21T15:20:59.414Z,94320.13
2023-05-21T15:23:26.563Z,94320.00
2023-05-21T15:25:53.354Z,94326.47
2023-05-21T15:28:20.111Z,94309.31
2023-05-21T15:30:46.872Z,94303.16
2023-05-21T15:33:13.742Z,94307.56
2023-05-21T15:35:41.212Z,94297.88
2023-05-21T15:38:08.390Z,94306.94
2023-05-21T15:40:35.173Z,94291.88
2023-05-21T15:43:01.937Z,94287.38
2023-05-21T15:45:28.743Z,94293.69
2023-05-21T15:47:55.714Z,94294.28
2023-05-21T15:50:22.501Z,94286.34
2023-05-21T15:52:51.017Z,94286.88
2023-05-21T15:55:20.076Z,94307.72
2023-05-21T15:57:46.867Z,94300.84
2023-05-21T16:00:13.961Z,94296.00
2023-05-21T16:02:41.975Z,94272.25
2023-05-21T16:05:09.342Z,94288.91
2023-05-21T16:07:38.338Z,94288.78
2023-05-21T16:10:06.634Z,94297.19
2023-05-21T16:12:33.403Z,94289.13
2023-05-21T16:15:00.368Z,94275.63
2023-05-21T16:17:27.293Z,94280.22
2023-05-21T16:19:54.148Z,94281.13
2023-05-21T16:22:20.935Z,94285.75
2023-05-21T16:24:48.275Z,94283.16
2023-05-21T16:27:15.362Z,94278.47
2023-05-21T16:29:42.710Z,94285.59
2023-05-21T16:32:10.945Z,94277.13
2023-05-21T16:34:37.778Z,94263.97
2023-05-21T16:37:04.772Z,94280.00
2023-05-21T16:39:31.619Z,94282.34
2023-05-21T16:41:59.835Z,94265.88
2023-05-21T16:44:27.525Z,94263.19
2023-05-21T16:46:54.415Z,94264.09
2023-05-21T16:49:21.208Z,94263.91
2023-05-21T16:51:47.952Z,94255.84
2023-05-21T16:54:14.685Z,94240.63
2023-05-21T16:56:41.472Z,94242.81
2023-05-21T16:59:08.223Z,94245.72
2023-05-21T17:01:35.044Z,94224.47
2023-05-21T17:04:02.079Z,94235.41
2023-05-21T17:06:28.890Z,94224.63
2023-05-21T17:08:55.772Z,94243.31
2023-05-21T17:11:22.911Z,94246.75
2023-05-21T17:13:49.724Z,94237.13
2023-05-21T17:16:16.518Z,94230.69
2023-05-21T17:18:43.543Z,94209.06
2023-05-21T17:21:10.599Z,94224.34
2023-05-21T17:23:37.400Z,94209.25
2023-05-21T17:26:06.965Z,94229.34
2023-05-21T17:28:33.794Z,94229.16
2023-05-21T17:31:01.835Z,94227.28
2023-05-21T17:33:28.833Z,94219.00
2023-05-21T17:35:57.107Z,94223.44
2023-05-21T17:38:23.995Z,94226.22
2023-05-21T17:40:50.888Z,94251.63
2023-05-21T17:43:18.083Z,94252.91
2023-05-21T17:45:44.981Z,94249.47
2023-05-21T17:48:12.254Z,94253.91
2023-05-21T17:50:39.141Z,94245.75
2023-05-21T17:53:05.979Z,94240.25
2023-05-21T17:55:32.757Z,94248.44
2023-05-21T17:58:01.077Z,94236.72
2023-05-21T18:00:28.124Z,94234.91
2023-05-21T18:02:54.927Z,94239.56
2023-05-21T18:05:22.847Z,94245.78
2023-05-21T18:07:49.750Z,94234.09
2023-05-21T18:10:16.600Z,94240.31
2023-05-21T18:12:46.362Z,94252.41
2023-05-21T18:15:14.692Z,94235.53
2023-05-21T18:17:42.019Z,94230.19
2023-05-21T18:20:09.497Z,94236.38
2023-05-21T18:22:36.727Z,94231.59
2023-05-21T18:25:04.504Z,94236.84
2023-05-21T18:27:31.584Z,94255.09
2023-05-21T18:30:02.330Z,94216.75
2023-05-21T18:32:29.366Z,94232.34
2023-05-21T18:34:56.703Z,94243.75
2023-05-21T18:37:23.824Z,94228.03
2023-05-21T18:39:51.022Z,94244.16
2023-05-21T18:42:17.774Z,94245.25
2023-05-21T18:44:46.538Z,94260.56
2023-05-21T18:47:13.813Z,94251.84
2023-05-21T18:49:40.530Z,94255.72
2023-05-21T18:52:07.801Z,94250.19
2023-05-21T18:54:34.567Z,94240.72
2023-05-21T18:57:01.719Z,94247.84
2023-05-21T18:59:29.266Z,94244.22
2023-05-21T19:01:56.189Z,94244.41
2023-05-21T19:04:23.084Z,94231.47
2023-05-21T19:06:50.018Z,94236.84
2023-05-21T19:09:17.174Z,94227.56
2023-05-21T19:11:44.197Z,94231.13
2023-05-21T19:14:11.171Z,94226.09
2023-05-21T19:16:38.242Z,94215.50
2023-05-21T19:19:06.083Z,94246.06
2023-05-21T19:21:33.218Z,94243.69
2023-05-21T19:24:00.114Z,94239.72
2023-05-21T19:26:27.228Z,94233.72
2023-05-21T19:28:54.617Z,94233.31
2023-05-21T19:31:23.324Z,94237.44
2023-05-21T19:33:50.650Z,94228.63
2023-05-21T19:36:18.692Z,94260.16
2023-05-21T19:38:49.270Z,94250.50
2023-05-21T19:41:19.977Z,94276.47
2023-05-21T19:43:47.133Z,94275.69
2023-05-21T19:46:17.192Z,94261.63
2023-05-21T19:48:45.080Z,94283.44
2023-05-21T19:51:11.931Z,94284.53
2023-05-21T19:53:38.860Z,94312.31
2023-05-21T19:56:05.899Z,94313.84
2023-05-21T19:58:33.183Z,94323.06
2023-05-21T20:01:00.126Z,94321.59
2023-05-21T20:03:29.136Z,94322.91
2023-05-21T20:05:56.068Z,94337.34
2023-05-21T20:08:23.028Z,94338.69
2023-05-21T20:10:51.903Z,94343.69
2023-05-21T20:13:19.585Z,94351.88
2023-05-21T20:15:48.020Z,94336.41
2023-05-21T20:18:15.477Z,94362.06
2023-05-21T20:20:43.391Z,94353.03
2023-05-21T20:23:10.250Z,94356.81
2023-05-21T20:25:37.059Z,94350.69
2023-05-21T20:28:05.314Z,94342.75
2023-05-21T20:30:34.068Z,94357.47
2023-05-21T20:33:02.555Z,94352.91
2023-05-21T20:35:30.148Z,94356.25
2023-05-21T20:37:57.011Z,94360.41
2023-05-21T20:40:23.743Z,94341.53
2023-05-21T20:42:52.040Z,94358.66
2023-05-21T20:45:18.914Z,94357.44
2023-05-21T20:47:47.834Z,94356.53
2023-05-21T20:50:17.967Z,94350.47
2023-05-21T20:52:46.998Z,94363.34
2023-05-21T20:55:14.961Z,94355.28
2023-05-21T20:57:42.214Z,94363.28
2023-05-21T21:00:12.074Z,94359.13
2023-05-21T21:02:39.173Z,94351.97
2023-05-21T21:05:06.673Z,94358.28
2023-05-21T21:07:34.299Z,94361.25
2023-05-21T21:10:01.625Z,94356.13
2023-05-21T21:12:28.923Z,94358.03
2023-05-21T21:14:56.122Z,94355.50
2023-05-21T21:17:23.395Z,94353.41
2023-05-21T21:19:50.358Z,94356.56
2023-05-21T21:22:18.483Z,94356.28
2023-05-21T21:24:45.825Z,94362.81
2023-05-21T21:27:12.678Z,94355.22
2023-05-21T21:29:39.851Z,94362.31
2023-05-21T21:32:07.059Z,94358.56
2023-05-21T21:34:34.678Z,94354.28
2023-05-21T21:37:01.462Z,94348.03
2023-05-21T21:39:28.443Z,94348.44
2023-05-21T21:41:55.774Z,94350.84
2023-05-21T21:44:22.593Z,94348.09
2023-05-21T21:46:49.534Z,94344.63
2023-05-21T21:49:19.118Z,94347.75
2023-05-21T21:51:46.029Z,94351.03
2023-05-21T21:54:12.808Z,94350.78
2023-05-21T21:56:41.298Z,94356.78
2023-05-21T21:59:08.206Z,94356.88
2023-05-21T22:01:36.063Z,94355.81
2023-05-21T22:04:03.405Z,94361.78
2023-05-21T22:06:31.384Z,94362.38
2023-05-21T22:08:58.285Z,94362.81
2023-05-21T22:11:27.028Z,94361.78
2023-05-21T22:13:53.925Z,94369.72
2023-05-21T22:16:24.958Z,94363.66
2023-05-21T22:18:54.270Z,94357.31
2023-05-21T22:21:21.785Z,94360.44
2023-05-21T22:23:48.854Z,94359.19
2023-05-21T22:26:15.921Z,94356.06
2023-05-21T22:28:42.913Z,94362.09
2023-05-21T22:31:09.994Z,94362.13
2023-05-21T22:33:37.184Z,94363.69
2023-05-21T22:36:04.304Z,94370.94
2023-05-21T22:38:31.169Z,94355.59
2023-05-21T22:40:58.045Z,94361.44
2023-05-21T22:43:26.190Z,94362.22
2023-05-21T22:45:53.075Z,94360.84
2023-05-21T22:48:22.004Z,94365.16
2023-05-21T22:50:50.332Z,94365.81
2023-05-21T22:53:17.834Z,94360.78
2023-05-21T22:55:44.826Z,94368.03
2023-05-21T22:58:11.575Z,94372.47
2023-05-21T23:00:38.515Z,94362.56
2023-05-21T23:03:05.609Z,94360.66
2023-05-21T23:05:32.404Z,94363.84
2023-05-21T23:07:59.534Z,94370.19
2023-05-21T23:10:26.450Z,94362.13
2023-05-21T23:12:54.139Z,94364.75
2023-05-21T23:15:21.697Z,94365.47
2023-05-21T23:17:48.645Z,94367.50
2023-05-21T23:20:15.567Z,94366.59
2023-05-21T23:22:42.317Z,94364.34
2023-05-21T23:25:09.660Z,94362.19
2023-05-21T23:27:36.391Z,94362.13
2023-05-21T23:30:03.358Z,94368.25
2023-05-21T23:32:30.305Z,94381.47
2023-05-21T23:34:57.180Z,94375.19
2023-05-21T23:37:24.028Z,94367.75
2023-05-21T23:39:51.489Z,94382.91
2023-05-21T23:42:18.781Z,94380.78
2023-05-21T23:44:45.575Z,94369.06
2023-05-21T23:47:12.300Z,94376.91
2023-05-21T23:49:39.590Z,94376.28
2023-05-21T23:52:07.016Z,94365.41
2023-05-21T23:54:33.770Z,94372.38
2023-05-21T23:57:01.385Z,94376.00
2023-05-21T23:59:28.093Z,94367.69
